createdAt,value
2017-09-10T00:01:28.092Z,91.11
2017-09-10T00:03:55.478Z,91.17
2017-09-10T00:06:23.053Z,91.17
2017-09-10T00:08:50.473Z,91.08
2017-09-10T00:11:17.848Z,91.06
2017-09-10T00:13:45.278Z,91.05
2017-09-10T00:16:12.671Z,91.06
2017-09-10T00:18:40.073Z,91.13
2017-09-10T00:21:07.494Z,91.15
2017-09-10T00:23:34.904Z,91.22
2017-09-10T00:26:02.295Z,91.33
2017-09-10T00:28:29.819Z,91.32
2017-09-10T00:30:57.220Z,91.41
2017-09-10T00:33:24.612Z,91.47
2017-09-10T00:35:52.135Z,91.60
2017-09-10T00:38:19.540Z,91.80
2017-09-10T00:40:46.960Z,91.75
2017-09-10T00:43:14.358Z,91.85
2017-09-10T00:45:41.750Z,92.05
2017-09-10T00:48:09.147Z,91.93
2017-09-10T00:50:36.698Z,91.94
2017-09-10T00:53:04.090Z,91.99
2017-09-10T00:55:31.492Z,92.00
2017-09-10T00:57:59.053Z,91.97
2017-09-10T01:00:26.439Z,91.94
2017-09-10T01:02:53.830Z,92.08
2017-09-10T01:05:21.402Z,92.11
2017-09-10T01:07:48.815Z,92.16
2017-09-10T01:10:17.106Z,92.04
2017-09-10T01:12:44.502Z,91.98
2017-09-10T01:15:11.922Z,91.94
2017-09-10T01:17:39.307Z,92.04
2017-09-10T01:20:06.849Z,92.07
2017-09-10T01:22:34.247Z,92.30
2017-09-10T01:25:01.664Z,92.46
2017-09-10T01:27:29.216Z,92.33
2017-09-10T01:29:56.606Z,92.26
2017-09-10T01:32:24.015Z,92.13
2017-09-10T01:34:51.433Z,92.33
2017-09-10T01:37:18.827Z,92.20
2017-09-10T01:39:46.224Z,92.05
2017-09-10T01:42:14.101Z,92.57
2017-09-10T01:44:41.475Z,92.34
2017-09-10T01:47:08.877Z,92.23
2017-09-10T01:49:36.392Z,92.19
2017-09-10T01:52:03.782Z,92.20
2017-09-10T01:54:31.172Z,92.21
2017-09-10T01:56:58.711Z,92.37
2017-09-10T01:59:26.126Z,92.42
2017-09-10T02:01:53.518Z,92.49
2017-09-10T02:04:21.045Z,92.51
2017-09-10T02:06:48.478Z,92.56
2017-09-10T02:09:16.669Z,92.66
2017-09-10T02:11:44.115Z,92.51
2017-09-10T02:14:11.507Z,92.52
2017-09-10T02:16:38.903Z,92.51
2017-09-10T02:19:06.463Z,92.56
2017-09-10T02:21:33.852Z,92.62
2017-09-10T02:24:01.243Z,92.63
2017-09-10T02:26:28.773Z,92.66
2017-09-10T02:28:56.423Z,92.62
2017-09-10T02:31:23.814Z,92.63
2017-09-10T02:33:52.156Z,92.62
2017-09-10T02:36:19.547Z,92.63
2017-09-10T02:38:46.942Z,92.68
2017-09-10T02:41:14.494Z,92.61
2017-09-10T02:43:41.879Z,92.54
2017-09-10T02:46:09.270Z,92.56
2017-09-10T02:48:36.672Z,92.69
2017-09-10T02:51:04.063Z,92.57
2017-09-10T02:53:31.480Z,92.63
2017-09-10T02:55:58.901Z,92.69
2017-09-10T02:58:26.294Z,92.77
2017-09-10T03:00:53.694Z,92.70
2017-09-10T03:03:21.223Z,92.68
2017-09-10T03:05:48.610Z,92.59
2017-09-10T03:08:16.026Z,92.52
2017-09-10T03:10:43.583Z,92.56
2017-09-10T03:13:10.977Z,92.70
2017-09-10T03:15:38.363Z,92.73
2017-09-10T03:18:05.916Z,92.67
2017-09-10T03:20:33.306Z,92.64
2017-09-10T03:23:01.146Z,92.76
2017-09-10T03:25:28.695Z,92.84
2017-09-10T03:27:56.082Z,92.66
2017-09-10T03:30:23.475Z,92.60
2017-09-10T03:32:51.018Z,92.42
2017-09-10T03:35:18.410Z,92.27
2017-09-10T03:37:45.797Z,92.15
2017-09-10T03:40:13.351Z,92.03
2017-09-10T03:42:40.758Z,91.97
2017-09-10T03:45:08.159Z,91.92
2017-09-10T03:47:35.699Z,91.80
2017-09-10T03:50:03.094Z,91.77
2017-09-10T03:52:30.482Z,91.82
2017-09-10T03:54:57.992Z,91.91
2017-09-10T03:57:25.385Z,91.95
2017-09-10T03:59:52.774Z,91.95
2017-09-10T04:02:20.179Z,92.16
2017-09-10T04:04:47.572Z,92.28
2017-09-10T04:07:14.964Z,92.28
2017-09-10T04:09:42.367Z,92.36
2017-09-10T04:12:09.763Z,92.23
2017-09-10T04:14:37.155Z,92.20
2017-09-10T04:17:04.703Z,92.09
2017-09-10T04:19:32.098Z,92.02
2017-09-10T04:21:59.493Z,92.04
2017-09-10T04:24:26.994Z,92.11
2017-09-10T04:26:54.447Z,92.06
2017-09-10T04:29:21.838Z,92.17
2017-09-10T04:31:49.383Z,92.42
2017-09-10T04:34:16.778Z,92.52
2017-09-10T04:36:44.172Z,92.52
2017-09-10T04:39:11.586Z,92.52
2017-09-10T04:41:38.979Z,92.63
2017-09-10T04:44:06.372Z,92.62
2017-09-10T04:46:33.798Z,92.67
2017-09-10T04:49:01.200Z,92.64
2017-09-10T04:51:28.597Z,92.68
2017-09-10T04:53:56.099Z,92.84
2017-09-10T04:56:23.490Z,92.81
2017-09-10T04:58:50.887Z,92.83
2017-09-10T05:01:18.317Z,92.75
2017-09-10T05:03:45.714Z,92.84
2017-09-10T05:06:13.115Z,92.99
2017-09-10T05:08:40.620Z,92.97
2017-09-10T05:11:08.014Z,92.85
2017-09-10T05:13:35.407Z,92.95
2017-09-10T05:16:02.990Z,92.87
2017-09-10T05:18:30.396Z,92.90
2017-09-10T05:20:57.782Z,92.88
2017-09-10T05:23:25.291Z,93.03
2017-09-10T05:25:52.683Z,93.01
2017-09-10T05:28:20.074Z,92.89
2017-09-10T05:30:47.619Z,92.85
2017-09-10T05:33:15.008Z,92.87
2017-09-10T05:35:42.398Z,93.01
2017-09-10T05:38:09.951Z,93.15
2017-09-10T05:40:37.355Z,93.07
2017-09-10T05:43:04.743Z,93.03
2017-09-10T05:45:32.175Z,92.94
2017-09-10T05:47:59.566Z,92.92
2017-09-10T05:50:26.956Z,92.94
2017-09-10T05:52:54.463Z,92.84
2017-09-10T05:55:21.854Z,92.84
2017-09-10T05:57:49.246Z,92.91
2017-09-10T06:00:16.794Z,93.04
2017-09-10T06:02:44.190Z,93.18
2017-09-10T06:05:11.578Z,92.69
2017-09-10T06:07:39.111Z,92.60
2017-09-10T06:10:06.498Z,92.16
2017-09-10T06:12:33.891Z,92.12
2017-09-10T06:15:01.391Z,91.93
2017-09-10T06:17:28.833Z,91.58
2017-09-10T06:19:56.222Z,91.60
2017-09-10T06:22:23.627Z,91.68
2017-09-10T06:24:51.015Z,91.66
2017-09-10T06:27:18.418Z,91.77
2017-09-10T06:29:45.922Z,91.96
2017-09-10T06:32:13.311Z,92.10
2017-09-10T06:34:40.695Z,92.19
2017-09-10T06:37:08.243Z,92.22
2017-09-10T06:39:35.642Z,92.05
2017-09-10T06:42:03.034Z,92.07
2017-09-10T06:44:30.458Z,92.20
2017-09-10T06:46:57.846Z,92.01
2017-09-10T06:49:25.243Z,92.04
2017-09-10T06:51:53.038Z,91.60
2017-09-10T06:54:20.402Z,91.46
2017-09-10T06:56:47.811Z,91.32
2017-09-10T06:59:15.226Z,91.43
2017-09-10T07:01:42.614Z,91.46
2017-09-10T07:04:10.015Z,91.77
2017-09-10T07:06:37.415Z,91.75
2017-09-10T07:09:04.810Z,91.58
2017-09-10T07:11:32.361Z,91.58
2017-09-10T07:13:59.747Z,91.49
2017-09-10T07:16:27.138Z,91.04
2017-09-10T07:18:54.559Z,91.00
2017-09-10T07:21:22.548Z,91.00
2017-09-10T07:23:49.933Z,91.29
2017-09-10T07:26:17.346Z,91.00
2017-09-10T07:28:44.748Z,91.10
2017-09-10T07:31:12.176Z,91.23
2017-09-10T07:33:39.562Z,90.37
2017-09-10T07:36:06.971Z,90.17
2017-09-10T07:38:34.657Z,89.54
2017-09-10T07:41:02.051Z,89.88
2017-09-10T07:43:29.483Z,89.95
2017-09-10T07:45:56.874Z,88.49
2017-09-10T07:48:24.450Z,88.72
2017-09-10T07:50:51.846Z,88.40
2017-09-10T07:53:19.463Z,88.21
2017-09-10T07:55:46.870Z,87.25
2017-09-10T07:58:14.250Z,86.68
2017-09-10T08:00:42.179Z,87.75
2017-09-10T08:03:09.579Z,87.30
2017-09-10T08:05:36.967Z,87.49
2017-09-10T08:08:04.366Z,87.03
2017-09-10T08:10:31.757Z,87.12
2017-09-10T08:12:59.211Z,87.27
2017-09-10T08:15:26.603Z,86.23
2017-09-10T08:17:53.986Z,85.90
2017-09-10T08:20:21.544Z,86.53
2017-09-10T08:22:48.930Z,85.36
2017-09-10T08:25:16.343Z,86.02
2017-09-10T08:27:45.372Z,85.38
2017-09-10T08:30:13.112Z,85.17
2017-09-10T08:32:40.670Z,86.56
2017-09-10T08:35:08.206Z,84.97
2017-09-10T08:37:35.623Z,84.18
2017-09-10T08:40:03.019Z,83.67
2017-09-10T08:42:30.525Z,83.16
2017-09-10T08:44:57.903Z,83.01
2017-09-10T08:47:25.288Z,81.24
2017-09-10T08:49:52.673Z,80.77
2017-09-10T08:52:20.075Z,82.03
2017-09-10T08:54:47.614Z,81.33
2017-09-10T08:57:15.010Z,80.42
2017-09-10T08:59:42.395Z,77.21
2017-09-10T09:02:09.902Z,74.67
2017-09-10T09:04:37.274Z,76.25
2017-09-10T09:07:04.808Z,75.60
2017-09-10T09:09:32.193Z,72.06
2017-09-10T09:11:59.583Z,74.54
2017-09-10T09:14:26.982Z,71.66
2017-09-10T09:16:54.383Z,70.92
2017-09-10T09:19:21.786Z,69.19
2017-09-10T09:21:49.163Z,70.50
2017-09-10T09:24:16.584Z,69.21
2017-09-10T09:26:43.963Z,69.20
2017-09-10T09:29:11.347Z,66.90
2017-09-10T09:31:39.796Z,65.36
2017-09-10T09:34:07.196Z,65.95
2017-09-10T09:36:34.579Z,65.23
2017-09-10T09:39:04.063Z,61.48
2017-09-10T09:41:31.453Z,61.65
2017-09-10T09:43:58.849Z,60.67
2017-09-10T09:46:26.240Z,60.83
2017-09-10T09:48:53.627Z,61.94
2017-09-10T09:51:21.170Z,61.50
2017-09-10T09:53:48.552Z,62.70
2017-09-10T09:56:15.954Z,60.46
2017-09-10T09:58:43.351Z,62.37
2017-09-10T10:01:10.741Z,63.07
2017-09-10T10:03:38.146Z,62.89
2017-09-10T10:06:05.538Z,63.25
2017-09-10T10:08:32.937Z,62.55
2017-09-10T10:11:00.323Z,62.20
2017-09-10T10:13:27.840Z,61.65
2017-09-10T10:15:55.235Z,60.50
2017-09-10T10:18:22.609Z,63.57
2017-09-10T10:20:50.034Z,58.60
2017-09-10T10:23:17.430Z,56.59
2017-09-10T10:25:44.813Z,54.43
2017-09-10T10:28:13.059Z,55.44
2017-09-10T10:30:40.464Z,58.93
2017-09-10T10:33:07.854Z,57.45
2017-09-10T10:35:35.244Z,59.27
2017-09-10T10:38:02.784Z,59.47
2017-09-10T10:40:30.170Z,62.38
2017-09-10T10:42:57.556Z,62.10
2017-09-10T10:45:24.962Z,56.25
2017-09-10T10:47:52.388Z,55.31
2017-09-10T10:50:19.778Z,56.05
2017-09-10T10:52:47.158Z,56.51
2017-09-10T10:55:14.539Z,51.53
2017-09-10T10:57:41.931Z,52.12
2017-09-10T11:00:09.319Z,53.60
2017-09-10T11:02:36.706Z,55.22
2017-09-10T11:05:04.094Z,54.81
2017-09-10T11:07:31.475Z,56.86
2017-09-10T11:09:58.867Z,53.10
2017-09-10T11:12:26.246Z,51.78
2017-09-10T11:14:53.740Z,55.99
2017-09-10T11:17:21.129Z,55.50
2017-09-10T11:19:48.518Z,56.32
2017-09-10T11:22:15.926Z,57.54
2017-09-10T11:24:43.307Z,60.39
2017-09-10T11:27:11.150Z,54.05
2017-09-10T11:29:38.538Z,51.74
2017-09-10T11:32:05.924Z,50.55
2017-09-10T11:34:33.313Z,53.78
2017-09-10T11:37:00.696Z,51.08
2017-09-10T11:39:28.082Z,51.45
2017-09-10T11:41:55.476Z,48.75
2017-09-10T11:44:23.008Z,50.26
2017-09-10T11:46:50.398Z,49.00
2017-09-10T11:49:17.778Z,48.84
2017-09-10T11:51:45.166Z,48.98
2017-09-10T11:54:12.569Z,51.40
2017-09-10T11:56:39.964Z,54.03
2017-09-10T11:59:07.349Z,55.82
2017-09-10T12:01:34.738Z,54.51
2017-09-10T12:04:02.126Z,54.13
2017-09-10T12:06:29.523Z,54.03
2017-09-10T12:08:56.912Z,54.29
2017-09-10T12:11:24.771Z,55.30
2017-09-10T12:13:52.154Z,56.93
2017-09-10T12:16:19.538Z,56.39
2017-09-10T12:18:47.011Z,56.80
2017-09-10T12:21:14.402Z,58.85
2017-09-10T12:23:41.903Z,55.21
2017-09-10T12:26:09.284Z,55.19
2017-09-10T12:28:36.666Z,56.02
2017-09-10T12:31:04.055Z,56.34
2017-09-10T12:33:31.445Z,54.86
2017-09-10T12:35:58.869Z,54.73
2017-09-10T12:38:26.252Z,50.58
2017-09-10T12:40:53.635Z,53.99
2017-09-10T12:43:21.034Z,53.55
2017-09-10T12:45:48.415Z,52.10
2017-09-10T12:48:15.906Z,52.23
2017-09-10T12:50:43.302Z,50.79
2017-09-10T12:53:10.686Z,49.80
2017-09-10T12:55:38.074Z,48.37
2017-09-10T12:58:05.455Z,51.90
2017-09-10T13:00:32.991Z,52.01
2017-09-10T13:03:00.372Z,51.29
2017-09-10T13:05:27.751Z,52.44
2017-09-10T13:07:55.138Z,52.52
2017-09-10T13:10:22.518Z,53.29
2017-09-10T13:12:49.922Z,55.44
2017-09-10T13:15:17.307Z,56.26
2017-09-10T13:17:44.705Z,54.50
2017-09-10T13:20:12.098Z,55.83
2017-09-10T13:22:39.639Z,52.34
2017-09-10T13:25:07.039Z,50.67
2017-09-10T13:27:34.415Z,52.33
2017-09-10T13:30:01.816Z,52.38
2017-09-10T13:32:29.194Z,55.35
2017-09-10T13:34:56.600Z,53.20
2017-09-10T13:37:23.979Z,52.39
2017-09-10T13:39:51.371Z,54.99
2017-09-10T13:42:18.765Z,51.91
2017-09-10T13:44:46.142Z,51.86
2017-09-10T13:47:13.686Z,53.25
2017-09-10T13:49:41.072Z,51.12
2017-09-10T13:52:08.469Z,50.91
2017-09-10T13:54:35.858Z,49.15
2017-09-10T13:57:03.239Z,50.86
2017-09-10T13:59:30.774Z,47.87
2017-09-10T14:01:58.162Z,52.79
2017-09-10T14:04:25.558Z,51.76
2017-09-10T14:06:52.950Z,51.01
2017-09-10T14:09:20.339Z,52.31
2017-09-10T14:11:47.726Z,53.03
2017-09-10T14:14:15.130Z,53.50
2017-09-10T14:16:42.518Z,52.86
2017-09-10T14:19:09.906Z,53.09
2017-09-10T14:21:37.291Z,55.02
2017-09-10T14:24:04.833Z,54.43
2017-09-10T14:26:32.224Z,54.48
2017-09-10T14:28:59.594Z,55.05
2017-09-10T14:31:26.986Z,54.14
2017-09-10T14:33:54.378Z,55.34
2017-09-10T14:36:21.767Z,54.09
2017-09-10T14:38:49.150Z,53.77
2017-09-10T14:41:16.547Z,55.59
2017-09-10T14:43:43.943Z,52.82
2017-09-10T14:46:11.326Z,55.15
2017-09-10T14:48:38.722Z,55.55
2017-09-10T14:51:06.106Z,52.42
2017-09-10T14:53:33.495Z,53.61
2017-09-10T14:56:00.895Z,53.06
2017-09-10T14:58:28.278Z,51.28
2017-09-10T15:00:55.787Z,51.79
2017-09-10T15:03:23.170Z,50.62
2017-09-10T15:05:50.558Z,51.74
2017-09-10T15:08:17.951Z,51.63
2017-09-10T15:10:45.373Z,53.22
2017-09-10T15:13:13.771Z,51.58
2017-09-10T15:15:41.155Z,50.78
2017-09-10T15:18:08.550Z,52.41
2017-09-10T15:20:35.947Z,50.79
2017-09-10T15:23:03.328Z,54.40
2017-09-10T15:25:30.870Z,53.32
2017-09-10T15:27:58.252Z,54.05
2017-09-10T15:30:25.641Z,53.92
2017-09-10T15:32:53.032Z,52.61
2017-09-10T15:35:20.443Z,54.27
2017-09-10T15:37:47.835Z,52.15
2017-09-10T15:40:15.262Z,49.99
2017-09-10T15:42:42.639Z,52.68
2017-09-10T15:45:10.026Z,53.94
2017-09-10T15:47:37.415Z,52.00
2017-09-10T15:50:05.071Z,52.61
2017-09-10T15:52:32.478Z,53.10
2017-09-10T15:54:59.926Z,55.00
2017-09-10T15:57:27.363Z,54.01
2017-09-10T15:59:54.764Z,53.01
2017-09-10T16:02:22.195Z,52.90
2017-09-10T16:04:49.585Z,52.51
2017-09-10T16:07:16.972Z,52.92
2017-09-10T16:09:44.378Z,52.32
2017-09-10T16:12:11.771Z,52.40
2017-09-10T16:14:39.266Z,53.30
2017-09-10T16:17:06.658Z,53.26
2017-09-10T16:19:34.070Z,54.28
2017-09-10T16:22:01.466Z,57.13
2017-09-10T16:24:28.870Z,54.75
2017-09-10T16:26:56.390Z,56.49
2017-09-10T16:29:23.765Z,56.86
2017-09-10T16:31:51.176Z,55.82
2017-09-10T16:34:18.584Z,54.97
2017-09-10T16:36:45.974Z,55.10
2017-09-10T16:39:13.539Z,55.81
2017-09-10T16:41:40.926Z,56.67
2017-09-10T16:44:08.350Z,57.11
2017-09-10T16:46:35.885Z,56.08
2017-09-10T16:49:03.320Z,59.42
2017-09-10T16:51:30.701Z,56.34
2017-09-10T16:53:58.089Z,56.51
2017-09-10T16:56:25.503Z,55.26
2017-09-10T16:58:52.899Z,55.00
2017-09-10T17:01:20.295Z,57.57
2017-09-10T17:03:47.687Z,56.61
2017-09-10T17:06:15.081Z,55.00
2017-09-10T17:08:42.491Z,55.95
2017-09-10T17:11:09.886Z,55.83
2017-09-10T17:13:37.282Z,57.00
2017-09-10T17:16:04.660Z,55.14
2017-09-10T17:18:32.044Z,56.65
2017-09-10T17:20:59.431Z,56.64
2017-09-10T17:23:26.926Z,56.59
2017-09-10T17:25:54.321Z,55.97
2017-09-10T17:28:21.698Z,55.78
2017-09-10T17:30:49.088Z,55.84
2017-09-10T17:33:16.483Z,55.04
2017-09-10T17:35:43.905Z,55.63
2017-09-10T17:38:11.326Z,57.13
2017-09-10T17:40:38.710Z,56.73
2017-09-10T17:43:06.102Z,56.83
2017-09-10T17:45:33.501Z,57.03
2017-09-10T17:48:00.874Z,57.38
2017-09-10T17:50:28.267Z,58.79
2017-09-10T17:52:55.678Z,57.63
2017-09-10T17:55:23.097Z,58.75
2017-09-10T17:57:52.256Z,58.61
2017-09-10T18:00:19.659Z,59.22
2017-09-10T18:02:47.045Z,59.74
2017-09-10T18:05:14.438Z,59.29
2017-09-10T18:07:42.029Z,59.64
2017-09-10T18:10:09.424Z,59.80
2017-09-10T18:12:36.841Z,60.39
2017-09-10T18:15:04.234Z,60.39
2017-09-10T18:17:31.627Z,61.39
2017-09-10T18:19:59.125Z,60.57
2017-09-10T18:22:26.504Z,60.62
2017-09-10T18:24:53.887Z,61.54
2017-09-10T18:27:21.288Z,61.66
2017-09-10T18:29:48.667Z,61.69
2017-09-10T18:32:16.075Z,62.12
2017-09-10T18:34:43.460Z,63.11
2017-09-10T18:37:10.843Z,62.57
2017-09-10T18:39:38.246Z,63.46
2017-09-10T18:42:05.655Z,64.68
2017-09-10T18:44:33.079Z,65.67
2017-09-10T18:47:00.470Z,65.23
2017-09-10T18:49:27.851Z,64.94
2017-09-10T18:51:55.249Z,65.14
2017-09-10T18:54:22.639Z,65.74
2017-09-10T18:56:50.176Z,66.82
2017-09-10T18:59:17.566Z,67.36
2017-09-10T19:01:44.941Z,67.32
2017-09-10T19:04:12.354Z,68.16
2017-09-10T19:06:39.745Z,68.50
2017-09-10T19:09:07.719Z,67.42
2017-09-10T19:11:35.113Z,67.82
2017-09-10T19:14:02.482Z,68.30
2017-09-10T19:16:29.878Z,68.23
2017-09-10T19:18:57.258Z,68.05
2017-09-10T19:21:24.654Z,68.20
2017-09-10T19:23:52.045Z,68.43
2017-09-10T19:26:19.435Z,69.44
2017-09-10T19:28:46.829Z,69.18
2017-09-10T19:31:14.214Z,69.47
2017-09-10T19:33:42.683Z,70.11
2017-09-10T19:36:10.071Z,70.53
2017-09-10T19:38:37.454Z,70.27
2017-09-10T19:41:04.852Z,69.85
2017-09-10T19:43:32.236Z,70.54
2017-09-10T19:45:59.649Z,70.53
2017-09-10T19:48:27.030Z,70.50
2017-09-10T19:50:54.420Z,70.29
2017-09-10T19:53:21.801Z,71.25
2017-09-10T19:55:49.187Z,70.20
2017-09-10T19:58:16.598Z,71.28
2017-09-10T20:00:44.902Z,71.66
2017-09-10T20:03:12.289Z,71.60
2017-09-10T20:05:39.676Z,71.16
2017-09-10T20:08:07.059Z,70.65
2017-09-10T20:10:34.454Z,71.32
2017-09-10T20:13:01.844Z,69.98
2017-09-10T20:15:29.226Z,70.25
2017-09-10T20:17:56.614Z,70.40
2017-09-10T20:20:24.012Z,70.23
2017-09-10T20:22:51.571Z,69.69
2017-09-10T20:25:18.940Z,69.41
2017-09-10T20:27:46.327Z,69.80
2017-09-10T20:30:13.718Z,69.30
2017-09-10T20:32:41.134Z,69.53
2017-09-10T20:35:08.525Z,69.51
2017-09-10T20:37:35.911Z,69.39
2017-09-10T20:40:03.294Z,69.76
2017-09-10T20:42:30.687Z,69.48
2017-09-10T20:44:58.077Z,68.73
2017-09-10T20:47:25.479Z,70.65
2017-09-10T20:49:52.866Z,69.83
2017-09-10T20:52:20.248Z,69.28
2017-09-10T20:54:47.643Z,69.69
2017-09-10T20:57:15.022Z,70.32
2017-09-10T20:59:42.519Z,70.46
2017-09-10T21:02:09.903Z,70.40
2017-09-10T21:04:37.283Z,70.70
2017-09-10T21:07:04.674Z,70.61
2017-09-10T21:09:32.059Z,71.40
2017-09-10T21:11:59.470Z,69.85
2017-09-10T21:14:26.868Z,71.42
2017-09-10T21:16:54.252Z,71.56
2017-09-10T21:19:21.646Z,71.42
2017-09-10T21:21:49.027Z,71.24
2017-09-10T21:24:16.420Z,70.75
2017-09-10T21:26:43.806Z,71.25
2017-09-10T21:29:11.197Z,71.25
2017-09-10T21:31:38.581Z,70.33
2017-09-10T21:34:05.978Z,71.14
2017-09-10T21:36:33.371Z,70.04
2017-09-10T21:39:00.899Z,69.87
2017-09-10T21:41:28.282Z,70.67
2017-09-10T21:43:55.673Z,69.89
2017-09-10T21:46:23.091Z,70.79
2017-09-10T21:48:56.275Z,70.26
2017-09-10T21:51:23.825Z,70.14
2017-09-10T21:53:51.239Z,70.37
2017-09-10T21:56:18.618Z,70.33
2017-09-10T21:58:46.010Z,70.69
2017-09-10T22:01:13.403Z,70.54
2017-09-10T22:03:40.819Z,70.32
2017-09-10T22:06:08.203Z,71.77
2017-09-10T22:08:35.586Z,71.60
2017-09-10T22:11:02.979Z,70.65
2017-09-10T22:13:30.358Z,70.95
2017-09-10T22:15:57.890Z,71.07
2017-09-10T22:18:25.287Z,70.97
2017-09-10T22:20:52.679Z,71.84
2017-09-10T22:23:20.071Z,71.26
2017-09-10T22:25:47.456Z,71.08
2017-09-10T22:28:14.950Z,71.26
2017-09-10T22:30:42.342Z,71.75
2017-09-10T22:33:09.722Z,71.04
2017-09-10T22:35:37.110Z,69.62
2017-09-10T22:38:04.498Z,70.18
2017-09-10T22:40:31.994Z,71.21
2017-09-10T22:42:59.391Z,70.95
2017-09-10T22:45:26.780Z,70.96
2017-09-10T22:47:54.175Z,70.90
2017-09-10T22:50:21.560Z,70.82
2017-09-10T22:52:48.955Z,70.99
2017-09-10T22:55:16.338Z,71.20
2017-09-10T22:57:43.723Z,70.75
2017-09-10T23:00:11.116Z,70.76
2017-09-10T23:02:38.509Z,72.64
2017-09-10T23:05:06.038Z,73.72
2017-09-10T23:07:33.424Z,75.36
2017-09-10T23:10:00.805Z,76.63
2017-09-10T23:12:28.199Z,77.51
2017-09-10T23:14:55.585Z,79.48
2017-09-10T23:17:23.129Z,78.93
2017-09-10T23:19:50.519Z,79.70
2017-09-10T23:22:17.907Z,79.23
2017-09-10T23:24:45.298Z,80.41
2017-09-10T23:27:12.694Z,81.07
2017-09-10T23:29:40.465Z,79.48
2017-09-10T23:32:07.862Z,80.81
2017-09-10T23:34:35.250Z,81.32
2017-09-10T23:37:02.667Z,80.95
2017-09-10T23:39:30.047Z,81.43
2017-09-10T23:41:57.606Z,81.38
2017-09-10T23:44:24.990Z,81.53
2017-09-10T23:46:52.382Z,81.84
2017-09-10T23:49:19.771Z,80.63
2017-09-10T23:51:47.162Z,80.87
2017-09-10T23:54:14.567Z,81.28
2017-09-10T23:56:41.960Z,81.35
2017-09-10T23:59:09.351Z,81.52
